Time;durP1;ratioP1;P1;durP2;ratioP2;P2;SDS_P1;SDS_P2;PMS_P1;PMS_P2;Temp;Humidity;BMP_temperature;BMP_pressure;BME280_temperature;BME280_humidity;BME280_pressure;Samples;Min_cycle;Max_cycle;Signal;HPM_P1;HPM_P2
2022/09/19 00:01:39;;;;;;;1.25;0.80;;;;;;;14.25;79.98;100235.00;5091213;28;20024;-71
2022/09/19 00:04:15;;;;;;;0.70;0.65;;;;;;;14.23;80.26;100235.03;5091360;28;20035;-71
2022/09/19 00:06:42;;;;;;;1.73;1.00;;;;;;;14.22;80.73;100236.00;5091453;28;20031;-70
2022/09/19 00:09:10;;;;;;;2.00;0.80;;;;;;;14.23;81.30;100240.41;5094112;28;20644;-70
2022/09/19 00:11:39;;;;;;;0.93;0.70;;;;;;;14.24;81.57;100249.28;5108350;28;20427;-72
2022/09/19 00:14:05;;;;;;;2.78;0.80;;;;;;;14.21;81.58;100249.44;5111511;28;20479;-71
2022/09/19 00:16:33;;;;;;;0.70;0.70;;;;;;;14.18;82.40;100244.22;5111709;28;20083;-70
2022/09/19 00:19:01;;;;;;;0.77;0.77;;;;;;;14.09;83.10;100240.13;5110933;28;20023;-71
2022/09/19 00:21:31;;;;;;;1.05;0.77;;;;;;;14.08;83.28;100253.59;5111589;28;20036;-73
2022/09/19 00:26:41;;;;;;;2.47;0.65;;;;;;;13.95;83.03;100249.69;5111404;28;20038;-71
2022/09/19 00:29:08;;;;;;;0.52;0.50;;;;;;;13.91;82.65;100245.41;5111315;28;20036;-71
2022/09/19 00:31:35;;;;;;;1.67;0.70;;;;;;;13.81;82.37;100242.25;5111661;28;20106;-71
2022/09/19 00:34:06;;;;;;;0.93;0.60;;;;;;;13.78;82.90;100250.41;5111273;28;20030;-70
2022/09/19 00:36:35;;;;;;;2.38;0.60;;;;;;;13.65;84.10;100249.19;5097286;28;20032;-71
2022/09/19 00:39:01;;;;;;;0.90;0.57;;;;;;;13.55;84.57;100252.28;5090421;28;20472;-71
2022/09/19 00:41:26;;;;;;;0.75;0.70;;;;;;;13.42;85.88;100256.38;5106450;28;20042;-71
2022/09/19 00:43:58;;;;;;;0.60;0.50;;;;;;;13.26;86.12;100265.94;5111533;28;20031;-71
2022/09/19 00:46:26;;;;;;;1.48;0.60;;;;;;;13.14;86.95;100257.50;5111059;28;20065;-71
2022/09/19 00:49:10;;;;;;;1.67;0.80;;;;;;;12.97;87.99;100265.25;5110900;28;20563;-70
2022/09/19 00:51:53;;;;;;;1.17;0.63;;;;;;;12.85;88.54;100265.69;5109159;28;20115;-71
2022/09/19 00:54:25;;;;;;;1.30;0.70;;;;;;;12.75;89.32;100263.44;5109111;28;20111;-71
2022/09/19 00:56:53;;;;;;;4.95;1.10;;;;;;;12.68;90.25;100267.25;5109363;28;20390;-71
2022/09/19 00:59:21;;;;;;;4.47;0.90;;;;;;;12.58;90.55;100271.19;5109433;28;20031;-70
2022/09/19 01:01:48;;;;;;;6.60;2.13;;;;;;;12.40;91.68;100267.41;5109881;28;20050;-71
2022/09/19 01:04:19;;;;;;;4.85;1.55;;;;;;;12.28;92.23;100262.50;5092773;28;20081;-71
2022/09/19 01:07:13;;;;;;;1.75;1.30;;;;;;;12.24;93.59;100276.00;5071950;28;20046;-71
2022/09/19 01:09:57;;;;;;;;;;;;;;;12.20;94.80;100275.25;5091038;28;20027;-71
2022/09/19 01:12:28;;;;;;;4.00;1.20;;;;;;;12.19;95.09;100280.63;5110541;28;19980;-70
2022/09/19 01:15:19;;;;;;;2.38;0.90;;;;;;;12.13;94.80;100294.16;5110644;28;20107;-70
2022/09/19 01:17:51;;;;;;;6.28;1.05;;;;;;;12.01;96.18;100290.13;5110236;28;20087;-69
2022/09/19 01:20:35;;;;;;;3.63;1.13;;;;;;;11.94;96.12;100296.59;5110137;28;20027;-70
2022/09/19 01:23:12;;;;;;;1.73;1.10;;;;;;;11.80;97.03;100293.50;5110122;28;20056;-70
2022/09/19 01:26:03;;;;;;;2.35;1.75;;;;;;;11.71;97.88;100296.50;5110115;28;20182;-70
2022/09/19 01:28:36;;;;;;;1.55;1.10;;;;;;;11.64;98.91;100295.81;5110296;28;20106;-70
2022/09/19 01:31:27;;;;;;;;;;;;;;;11.51;99.70;100293.56;5110484;28;20031;-69
2022/09/19 01:34:08;;;;;;;3.80;1.10;;;;;;;11.45;99.27;100299.09;5110499;28;19912;-70
2022/09/19 01:36:38;;;;;;;2.65;1.48;;;;;;;11.37;100.00;100303.75;5109845;28;20031;-70
2022/09/19 01:39:08;;;;;;;3.05;1.55;;;;;;;11.30;100.00;100308.41;5109894;28;20030;-70
2022/09/19 01:41:34;;;;;;;2.20;1.15;;;;;;;11.22;100.00;100312.25;5109440;28;20032;-71
2022/09/19 01:44:04;;;;;;;2.80;1.40;;;;;;;11.19;100.00;100314.97;5110315;28;20034;-70
2022/09/19 01:46:48;;;;;;;1.30;1.13;;;;;;;11.13;100.00;100308.06;5109836;28;20028;-70
2022/09/19 01:49:41;;;;;;;3.65;1.40;;;;;;;11.09;100.00;100311.72;5110191;28;20475;-69
2022/09/19 01:52:15;;;;;;;1.58;1.02;;;;;;;11.05;100.00;100315.41;5091586;28;20031;-70
2022/09/19 01:55:06;;;;;;;2.00;1.33;;;;;;;11.03;100.00;100317.25;5109668;28;20024;-70
2022/09/19 01:58:04;;;;;;;1.30;1.20;;;;;;;10.99;100.00;100314.72;5109560;28;20020;-71
2022/09/19 02:00:32;;;;;;;1.48;1.20;;;;;;;10.97;100.00;100316.56;5109626;28;20432;-70
2022/09/19 02:03:25;;;;;;;1.55;1.20;;;;;;;10.91;100.00;100320.25;5109772;28;20030;-71
2022/09/19 02:06:07;;;;;;;1.77;1.10;;;;;;;10.86;100.00;100318.63;5091634;28;20039;-69
2022/09/19 02:08:37;;;;;;;1.20;1.08;;;;;;;10.80;100.00;100322.38;5089427;28;20032;-69
2022/09/19 02:11:16;;;;;;;1.60;1.10;;;;;;;10.72;100.00;100320.81;5103948;28;20444;-69
2022/09/19 02:13:51;;;;;;;3.42;0.98;;;;;;;10.67;100.00;100328.06;5109126;28;20031;-69
2022/09/19 02:16:47;;;;;;;1.17;0.93;;;;;;;10.59;100.00;100331.81;5090997;28;20027;-68
2022/09/19 02:19:25;;;;;;;1.35;1.00;;;;;;;10.50;100.00;100325.88;5109501;28;20105;-70
2022/09/19 02:21:59;;;;;;;2.30;1.08;;;;;;;10.49;100.00;100330.31;5109747;28;20160;-69
2022/09/19 02:24:30;;;;;;;1.33;1.20;;;;;;;10.44;100.00;100326.91;5109032;28;20043;-69
2022/09/19 02:27:12;;;;;;;2.90;1.10;;;;;;;10.37;100.00;100338.63;5108107;28;20035;-69
2022/09/19 02:29:45;;;;;;;1.30;1.00;;;;;;;10.33;100.00;100344.06;5104814;28;20058;-68
2022/09/19 02:32:11;;;;;;;1.45;1.30;;;;;;;10.25;100.00;100327.44;5104957;28;20510;-69
2022/09/19 02:34:37;;;;;;;1.75;1.38;;;;;;;10.20;100.00;100329.34;5104620;28;20032;-69
2022/09/19 02:37:39;;;;;;;2.83;1.00;;;;;;;10.27;100.00;100347.75;5086230;28;20443;-69
2022/09/19 02:40:25;;;;;;;2.63;1.58;;;;;;;10.34;100.00;100343.16;5083989;28;20082;-69
2022/09/19 02:43:06;;;;;;;2.38;1.40;;;;;;;10.43;100.00;100340.25;5105543;28;20051;-69
2022/09/19 02:45:51;;;;;;;1.70;1.30;;;;;;;10.49;100.00;100340.94;5090588;28;20027;-69
2022/09/19 02:48:44;;;;;;;4.47;1.48;;;;;;;10.53;100.00;100341.75;5109213;28;20028;-69
2022/09/19 02:51:32;;;;;;;3.42;1.67;;;;;;;10.55;100.00;100342.56;5109190;28;20031;-68
2022/09/19 02:54:02;;;;;;;1.60;1.45;;;;;;;10.59;100.00;100338.94;5109276;28;20035;-68
2022/09/19 02:56:34;;;;;;;3.25;1.20;;;;;;;10.60;100.00;100354.84;5108992;28;20421;-69
2022/09/19 02:59:11;;;;;;;1.58;1.33;;;;;;;10.56;100.00;100336.31;5108992;28;20028;-69
2022/09/19 03:01:42;;;;;;;2.08;1.20;;;;;;;10.59;100.00;100347.75;5108962;28;20027;-69
2022/09/19 03:04:14;;;;;;;2.28;1.25;;;;;;;10.51;100.00;100340.91;5109672;28;20580;-70
2022/09/19 03:07:01;;;;;;;2.57;1.20;;;;;;;10.53;100.00;100347.06;5109042;28;20100;-69
2022/09/19 03:09:30;;;;;;;1.40;1.10;;;;;;;10.54;100.00;100344.34;5109236;28;20261;-69
2022/09/19 03:12:18;;;;;;;1.50;1.40;;;;;;;10.50;100.00;100347.16;5089136;28;20103;-69
2022/09/19 03:14:45;;;;;;;3.17;1.20;;;;;;;10.51;100.00;100354.19;5089127;28;20043;-69
2022/09/19 03:17:16;;;;;;;2.78;1.50;;;;;;;10.50;100.00;100358.66;5092167;28;20035;-69
2022/09/19 03:19:45;;;;;;;4.78;1.60;;;;;;;10.49;100.00;100364.88;5092358;28;20543;-69
2022/09/19 03:22:11;;;;;;;3.15;1.52;;;;;;;10.45;100.00;100357.91;5092370;28;20103;-69
2022/09/19 03:24:37;;;;;;;1.65;1.08;;;;;;;10.41;100.00;100363.38;5091937;28;20449;-69
2022/09/19 03:27:03;;;;;;;1.23;1.10;;;;;;;10.41;100.00;100369.53;5092191;28;20031;-68
2022/09/19 03:29:33;;;;;;;2.00;1.27;;;;;;;10.38;100.00;100364.28;5092313;28;20024;-68
2022/09/19 03:31:58;;;;;;;1.13;1.02;;;;;;;10.37;100.00;100370.53;5092184;28;20098;-69
2022/09/19 03:34:24;;;;;;;1.20;1.10;;;;;;;10.37;100.00;100373.19;5093581;28;20111;-69
2022/09/19 03:36:49;;;;;;;3.20;1.38;;;;;;;10.35;100.00;100371.47;5111965;28;20420;-68
2022/09/19 03:39:15;;;;;;;4.18;1.50;;;;;;;10.32;100.00;100371.56;5112278;28;20035;-69
2022/09/19 03:41:40;;;;;;;5.70;1.38;;;;;;;10.29;100.00;100369.88;5094610;28;20383;-69
2022/09/19 03:44:07;;;;;;;1.90;1.10;;;;;;;10.14;100.00;100351.66;5073670;28;20020;-69
2022/09/19 03:46:32;;;;;;;1.50;1.13;;;;;;;10.21;100.00;100366.50;5091171;28;20396;-69
2022/09/19 03:49:02;;;;;;;1.83;1.33;;;;;;;10.19;100.00;100380.75;5090470;28;20031;-69
2022/09/19 03:51:33;;;;;;;3.30;1.08;;;;;;;10.17;100.00;100375.50;5090343;28;20423;-68
2022/09/19 03:53:59;;;;;;;3.78;1.58;;;;;;;10.17;100.00;100369.28;5090181;28;20023;-69
2022/09/19 03:56:24;;;;;;;3.00;1.50;;;;;;;10.17;100.00;100375.50;5092403;28;20028;-68
2022/09/19 03:58:50;;;;;;;1.70;1.30;;;;;;;10.13;100.00;100387.09;5111072;28;20110;-69
2022/09/19 04:01:16;;;;;;;2.38;1.77;;;;;;;10.11;100.00;100391.59;5110761;28;20027;-68
2022/09/19 04:03:42;;;;;;;1.85;1.20;;;;;;;10.10;100.00;100405.78;5111683;28;20482;-68
2022/09/19 04:06:08;;;;;;;4.20;1.48;;;;;;;9.97;100.00;100393.69;5111577;28;20032;-68
2022/09/19 04:08:34;;;;;;;2.55;1.08;;;;;;;9.99;100.00;100401.59;5107175;28;20083;-69
2022/09/19 04:11:00;;;;;;;1.77;1.25;;;;;;;9.96;100.00;100407.00;5107977;28;20027;-68
2022/09/19 04:13:27;;;;;;;1.60;1.08;;;;;;;9.94;100.00;100404.38;5091650;28;20054;-69
2022/09/19 04:15:54;;;;;;;1.38;1.10;;;;;;;9.93;100.00;100407.97;5091897;28;20078;-68
2022/09/19 04:18:19;;;;;;;1.50;1.00;;;;;;;9.95;100.00;100408.78;5108646;28;20020;-68
2022/09/19 04:20:46;;;;;;;2.10;1.40;;;;;;;9.94;100.00;100408.81;5109807;28;20030;-68
2022/09/19 04:23:16;;;;;;;2.83;1.52;;;;;;;10.04;100.00;100410.34;5110627;28;20055;-69
2022/09/19 04:25:44;;;;;;;1.70;1.38;;;;;;;9.80;100.00;100374.59;5111657;28;20429;-69
2022/09/19 04:28:11;;;;;;;1.40;1.08;;;;;;;10.07;100.00;100416.47;5110966;28;20062;-69
2022/09/19 04:30:40;;;;;;;2.22;1.17;;;;;;;10.12;100.00;100419.91;5111358;28;20135;-69
2022/09/19 04:33:10;;;;;;;1.73;1.40;;;;;;;10.14;100.00;100423.41;5111009;28;20130;-69
2022/09/19 04:35:37;;;;;;;1.77;1.42;;;;;;;10.20;100.00;100422.38;5111126;28;20100;-69
2022/09/19 04:38:04;;;;;;;7.30;1.65;;;;;;;10.19;100.00;100437.47;5111320;28;20035;-69
2022/09/19 04:40:29;;;;;;;8.80;2.03;;;;;;;10.21;100.00;100440.94;5103379;28;20032;-69
2022/09/19 04:42:55;;;;;;;4.22;1.52;;;;;;;10.10;100.00;100421.72;5090411;28;20028;-68
2022/09/19 04:45:20;;;;;;;2.70;1.48;;;;;;;10.23;100.00;100441.78;5090762;28;20032;-69
2022/09/19 04:47:49;;;;;;;1.98;1.33;;;;;;;10.18;100.00;100438.38;5101039;28;20036;-70
2022/09/19 04:50:15;;;;;;;5.85;1.40;;;;;;;10.13;100.00;100448.22;5109100;28;20541;-68
2022/09/19 04:52:41;;;;;;;8.95;1.42;;;;;;;10.12;100.00;100441.19;5108910;28;20027;-69
2022/09/19 04:55:08;;;;;;;1.80;1.10;;;;;;;10.10;100.00;100443.00;5109014;28;20034;-69
2022/09/19 04:57:33;;;;;;;1.48;1.00;;;;;;;10.11;100.00;100447.41;5108830;28;20058;-70
2022/09/19 04:59:59;;;;;;;3.95;1.20;;;;;;;10.04;100.00;100442.22;5109609;28;20055;-69
2022/09/19 05:02:30;;;;;;;3.75;2.45;;;;;;;10.14;100.00;100450.00;5109416;28;20028;-69
2022/09/19 05:04:55;;;;;;;3.30;2.65;;;;;;;10.09;100.00;100457.22;5110540;28;20046;-68
2022/09/19 05:07:22;;;;;;;1.55;1.45;;;;;;;10.07;100.00;100459.00;5110833;28;20069;-69
2022/09/19 05:09:47;;;;;;;5.60;1.70;;;;;;;10.06;100.00;100462.56;5090367;28;20023;-69
2022/09/19 05:12:13;;;;;;;4.75;2.00;;;;;;;10.03;100.00;100465.28;5090425;28;20055;-69
2022/09/19 05:14:39;;;;;;;4.72;2.20;;;;;;;10.04;100.00;100467.03;5090580;28;20376;-69
2022/09/19 05:17:04;;;;;;;4.97;2.53;;;;;;;10.05;100.00;100471.44;5089859;28;20085;-70
2022/09/19 05:19:32;;;;;;;7.22;2.65;;;;;;;10.08;100.00;100468.72;5089951;28;20396;-69
2022/09/19 05:21:57;;;;;;;8.18;2.25;;;;;;;10.10;100.00;100485.53;5071529;28;20527;-69
2022/09/19 05:24:23;;;;;;;3.53;1.63;;;;;;;10.16;100.00;100479.19;5090284;28;20539;-69
2022/09/19 05:26:48;;;;;;;15.63;3.33;;;;;;;10.17;100.00;100475.63;5090048;28;20016;-69
2022/09/19 05:29:13;;;;;;;5.50;2.50;;;;;;;10.25;100.00;100479.84;5089786;28;20031;-70
2022/09/19 05:31:40;;;;;;;8.57;3.35;;;;;;;10.33;100.00;100479.66;5089618;28;20103;-70
2022/09/19 05:34:05;;;;;;;6.88;3.63;;;;;;;10.39;100.00;100485.69;5089616;28;20032;-70
2022/09/19 05:36:31;;;;;;;12.07;3.75;;;;;;;10.42;100.00;100490.06;5090604;28;20558;-70
2022/09/19 05:38:57;;;;;;;11.50;4.60;;;;;;;10.53;100.00;100488.91;5089510;28;20397;-68
2022/09/19 05:41:23;;;;;;;11.45;4.22;;;;;;;10.50;100.00;100475.69;5089711;28;20410;-69
2022/09/19 05:43:50;;;;;;;8.73;4.20;;;;;;;10.70;100.00;100493.81;5106993;28;20056;-70
2022/09/19 05:46:15;;;;;;;4.25;2.25;;;;;;;10.75;100.00;100488.34;5110084;28;20030;-70
2022/09/19 05:48:41;;;;;;;5.15;2.25;;;;;;;10.79;100.00;100482.06;5109824;28;20031;-70
2022/09/19 05:51:06;;;;;;;3.00;1.60;;;;;;;10.80;100.00;100490.00;5109923;28;20169;-69
2022/09/19 05:56:15;;;;;;;7.30;2.45;;;;;;;10.86;100.00;100488.94;5109822;28;20072;-69
2022/09/19 05:58:41;;;;;;;6.22;2.63;;;;;;;11.03;100.00;100494.69;5108156;28;20028;-69
2022/09/19 06:01:09;;;;;;;11.10;3.47;;;;;;;11.15;100.00;100500.56;5107569;28;20034;-70
2022/09/19 06:03:35;;;;;;;4.03;2.50;;;;;;;11.27;100.00;100505.56;5107807;28;20031;-69
2022/09/19 06:06:05;;;;;;;5.35;2.17;;;;;;;11.40;100.00;100503.44;5107942;28;20026;-69
2022/09/19 06:08:30;;;;;;;3.75;2.10;;;;;;;11.39;100.00;100504.34;5107825;28;20073;-69
2022/09/19 06:10:59;;;;;;;3.50;1.95;;;;;;;11.41;100.00;100515.84;5104317;28;20054;-69
2022/09/19 06:14:13;;;;;;;2.70;1.60;;;;;;;11.40;100.00;100503.44;5104739;28;20039;-69
2022/09/19 06:16:10;;;;;;;5.85;1.45;;;;;;;11.47;100.00;100508.53;5109489;28;20032;-70
2022/09/19 06:18:35;;;;;;;1.77;1.42;;;;;;;11.61;100.00;100521.47;5109757;28;20064;-70
2022/09/19 06:21:01;;;;;;;3.05;1.70;;;;;;;11.68;100.00;100525.72;5109602;28;20085;-70
2022/09/19 06:23:27;;;;;;;4.45;1.58;;;;;;;11.76;100.00;100521.06;5109394;28;20083;-70
2022/09/19 06:25:52;;;;;;;6.75;2.08;;;;;;;11.83;100.00;100525.28;5109312;28;20368;-70
2022/09/19 06:28:17;;;;;;;8.13;2.67;;;;;;;11.87;100.00;100519.84;5108845;28;20460;-70
2022/09/19 06:30:43;;;;;;;3.92;2.40;;;;;;;11.90;100.00;100521.53;5109406;28;20024;-70
2022/09/19 06:33:09;;;;;;;5.80;2.25;;;;;;;12.00;100.00;100528.31;5109322;28;20370;-70
2022/09/19 06:35:35;;;;;;;6.43;2.33;;;;;;;12.08;100.00;100531.63;5091112;28;20068;-69
2022/09/19 06:38:03;;;;;;;2.78;1.70;;;;;;;12.17;100.00;100531.38;5109172;28;20421;-69
2022/09/19 06:40:29;;;;;;;2.85;1.40;;;;;;;12.15;100.00;100517.19;5109019;28;20058;-70
2022/09/19 06:43:13;;;;;;;7.50;1.58;;;;;;;12.19;100.00;100540.16;5091230;28;20031;-70
2022/09/19 06:45:40;;;;;;;3.63;1.83;;;;;;;12.24;100.00;100543.56;5109491;28;20078;-70
2022/09/19 06:48:07;;;;;;;4.28;1.58;;;;;;;12.28;100.00;100542.56;5109395;28;20035;-70
2022/09/19 06:50:33;;;;;;;3.85;1.50;;;;;;;12.25;99.82;100541.78;5111151;28;20073;-71
2022/09/19 06:52:58;;;;;;;3.03;1.50;;;;;;;12.22;99.92;100536.53;5113115;28;20098;-70
2022/09/19 06:55:25;;;;;;;4.30;1.70;;;;;;;12.26;100.00;100536.41;5108357;28;20391;-70
2022/09/19 06:58:04;;;;;;;4.68;1.70;;;;;;;12.42;100.00;100545.66;5094656;28;20427;-70
2022/09/19 07:00:33;;;;;;;4.65;2.25;;;;;;;12.46;99.85;100544.66;5113138;28;20027;-69
2022/09/19 07:03:01;;;;;;;3.20;1.70;;;;;;;12.54;99.95;100550.63;5112993;28;20020;-69
2022/09/19 07:05:31;;;;;;;4.30;1.35;;;;;;;12.44;98.75;100541.16;5112821;28;20391;-70
2022/09/19 07:07:56;;;;;;;4.50;1.70;;;;;;;12.60;98.55;100566.41;5113258;28;20069;-70
2022/09/19 07:10:21;;;;;;;5.22;1.83;;;;;;;12.64;98.28;100554.72;5106199;28;20024;-70
2022/09/19 07:12:52;;;;;;;2.28;1.20;;;;;;;12.73;97.41;100565.13;5092613;28;20538;-70
2022/09/19 07:15:17;;;;;;;2.38;1.40;;;;;;;12.79;97.83;100564.91;5092276;28;20036;-70
2022/09/19 07:17:43;;;;;;;2.90;1.00;;;;;;;12.79;96.95;100564.91;5073961;28;20016;-71
2022/09/19 07:20:08;;;;;;;6.78;1.20;;;;;;;12.81;97.08;100549.72;5092026;28;20045;-71
2022/09/19 07:22:35;;;;;;;3.88;1.30;;;;;;;13.04;95.98;100562.34;5092495;28;20380;-70
2022/09/19 07:25:01;;;;;;;6.35;1.13;;;;;;;13.18;95.69;100562.72;5092026;28;20051;-71
2022/09/19 07:27:26;;;;;;;3.58;1.00;;;;;;;13.31;95.19;100563.19;5092249;28;20036;-71
2022/09/19 07:29:52;;;;;;;5.47;1.48;;;;;;;13.41;94.66;100570.81;5092006;28;20023;-69
2022/09/19 07:32:17;;;;;;;8.82;1.60;;;;;;;13.50;93.76;100572.28;5092342;28;20051;-71
2022/09/19 07:34:43;;;;;;;4.25;1.75;;;;;;;13.59;92.70;100572.81;5091761;28;20031;-71
2022/09/19 07:37:08;;;;;;;3.30;1.10;;;;;;;13.73;90.64;100577.69;5092037;28;20052;-71
2022/09/19 07:39:34;;;;;;;2.30;1.42;;;;;;;13.86;88.97;100581.66;5103311;28;20518;-71
2022/09/19 07:41:59;;;;;;;3.78;1.40;;;;;;;13.91;86.40;100564.50;5091901;28;20483;-70
2022/09/19 07:44:25;;;;;;;3.05;1.40;;;;;;;14.19;86.07;100588.41;5091810;28;20098;-70
2022/09/19 07:49:35;;;;;;;1.52;1.17;;;;;;;14.53;83.97;100595.09;5091723;28;20034;-71
2022/09/19 07:52:00;;;;;;;5.47;1.00;;;;;;;14.60;83.29;100590.38;5091819;28;20024;-71
2022/09/19 07:54:26;;;;;;;6.28;1.10;;;;;;;14.77;83.06;100595.06;5091649;28;20112;-71
2022/09/19 07:56:51;;;;;;;2.83;0.95;;;;;;;14.93;83.17;100599.72;5097758;28;20027;-71
2022/09/19 07:59:17;;;;;;;8.27;1.33;;;;;;;14.93;82.34;100599.72;5111679;28;20482;-72
2022/09/19 08:01:42;;;;;;;3.90;1.05;;;;;;;14.91;80.69;100606.09;5110675;28;20165;-70
2022/09/19 08:04:08;;;;;;;4.15;1.20;;;;;;;14.92;79.65;100595.31;5111842;28;20487;-71
2022/09/19 08:06:33;;;;;;;3.28;1.02;;;;;;;15.10;80.39;100602.59;5083205;28;20082;-70
2022/09/19 08:08:59;;;;;;;3.28;1.00;;;;;;;15.35;79.26;100618.53;5092895;28;20103;-70
2022/09/19 08:11:25;;;;;;;3.53;1.10;;;;;;;15.58;79.35;100621.13;5111708;28;20176;-71
2022/09/19 08:13:50;;;;;;;7.97;1.27;;;;;;;15.80;78.55;100622.78;5111874;28;20635;-71
2022/09/19 08:16:16;;;;;;;5.13;1.52;;;;;;;15.91;75.86;100606.22;5111416;28;20104;-70
2022/09/19 08:18:41;;;;;;;5.97;2.15;;;;;;;16.03;73.69;100620.91;5111579;28;20028;-71
2022/09/19 08:21:07;;;;;;;5.13;1.10;;;;;;;16.57;72.83;100635.34;5108028;28;20020;-70
2022/09/19 08:23:32;;;;;;;5.18;1.10;;;;;;;17.13;71.62;100627.25;5111523;28;20090;-70
2022/09/19 08:26:02;;;;;;;2.15;0.85;;;;;;;17.09;68.53;100631.03;5110314;28;20023;-71
2022/09/19 08:28:30;;;;;;;5.47;1.25;;;;;;;17.08;70.48;100619.41;5110135;28;20047;-70
2022/09/19 08:31:01;;;;;;;3.80;1.20;;;;;;;17.09;68.58;100626.53;5109631;28;20023;-71
2022/09/19 08:33:28;;;;;;;5.70;1.27;;;;;;;16.94;68.81;100632.66;5109993;28;20092;-70
2022/09/19 08:35:54;;;;;;;3.90;1.23;;;;;;;16.86;69.35;100629.47;5110049;28;20411;-70
2022/09/19 08:38:19;;;;;;;6.13;0.88;;;;;;;16.81;69.21;100627.94;5109950;28;20045;-71
2022/09/19 08:41:26;;;;;;;5.10;1.30;;;;;;;16.61;69.80;100626.22;5110272;28;20023;-69
2022/09/19 08:44:20;;;;;;;1.27;0.80;;;;;;;16.49;70.78;100625.94;5111390;28;20016;-70
2022/09/19 08:47:12;;;;;;;2.03;0.80;;;;;;;16.49;71.39;100626.78;5111070;28;20036;-71
2022/09/19 08:49:45;;;;;;;5.55;1.00;;;;;;;16.48;70.30;100634.91;5111289;28;20038;-70
2022/09/19 08:52:32;;;;;;;3.72;0.90;;;;;;;16.46;70.01;100640.34;5109894;28;20081;-70
2022/09/19 08:55:01;;;;;;;1.95;0.80;;;;;;;16.38;70.17;100636.25;5109138;28;20039;-70
2022/09/19 08:58:00;;;;;;;4.78;1.20;;;;;;;16.30;71.59;100638.41;5108993;28;20032;-70
2022/09/19 09:00:32;;;;;;;5.05;0.98;;;;;;;16.13;71.26;100639.19;5096494;28;20062;-71
2022/09/19 09:03:07;;;;;;;2.22;1.17;;;;;;;16.21;72.58;100631.66;5088790;28;20032;-69
2022/09/19 09:05:43;;;;;;;5.15;1.00;;;;;;;16.33;71.42;100639.16;5088486;28;20054;-71
2022/09/19 09:08:30;;;;;;;6.03;1.85;;;;;;;16.29;72.54;100636.69;5089791;28;20031;-71
2022/09/19 09:11:05;;;;;;;5.18;1.17;;;;;;;16.43;71.17;100639.59;5101484;28;20020;-71
2022/09/19 09:13:35;;;;;;;3.25;1.13;;;;;;;16.45;72.04;100643.09;5110298;28;20107;-71
2022/09/19 09:16:16;;;;;;;3.25;0.90;;;;;;;16.45;69.63;100637.72;5110453;28;20028;-70
2022/09/19 09:18:51;;;;;;;6.00;1.48;;;;;;;16.52;70.36;100636.53;5111021;28;20038;-70
2022/09/19 09:21:30;;;;;;;1.98;0.80;;;;;;;16.68;70.31;100632.16;5110321;28;20047;-69
2022/09/19 09:23:59;;;;;;;4.13;1.63;;;;;;;16.77;70.87;100626.38;5110530;28;20055;-71
2022/09/19 09:26:28;;;;;;;6.88;1.33;;;;;;;16.98;70.68;100628.84;5110465;28;20035;-70
2022/09/19 09:29:08;;;;;;;3.42;1.23;;;;;;;16.96;69.80;100616.44;5110258;28;20026;-71
2022/09/19 09:31:42;;;;;;;8.10;1.13;;;;;;;17.06;68.27;100634.75;5110424;28;20027;-71
2022/09/19 09:34:14;;;;;;;4.20;1.40;;;;;;;17.12;67.94;100636.25;5110573;28;20079;-71
2022/09/19 09:36:55;;;;;;;5.60;1.20;;;;;;;17.23;67.23;100633.91;5110012;28;20486;-70
2022/09/19 09:39:30;;;;;;;7.30;2.70;;;;;;;17.21;66.01;100629.56;5109661;28;20038;-70
2022/09/19 09:42:01;;;;;;;8.55;2.33;;;;;;;16.86;65.57;100613.34;5109739;28;20111;-70
2022/09/19 09:44:32;;;;;;;7.28;1.85;;;;;;;17.03;67.33;100620.59;5110430;28;20104;-70
2022/09/19 09:47:07;;;;;;;9.00;2.15;;;;;;;17.19;67.08;100624.25;5110005;28;20079;-69
2022/09/19 09:49:33;;;;;;;4.60;1.42;;;;;;;17.47;68.49;100615.69;5110256;28;20023;-70
2022/09/19 09:52:13;;;;;;;5.45;1.48;;;;;;;17.67;64.98;100621.81;5110371;28;20038;-71
2022/09/19 09:57:44;;;;;;;10.43;2.08;;;;;;;18.44;61.27;100617.63;5109717;28;20065;-69
2022/09/19 10:06:25;;;;;;;5.55;1.35;;;;;;;18.70;59.29;100618.91;5107787;28;20170;-71
2022/09/19 10:09:18;;;;;;;2.70;0.90;;;;;;;18.94;60.50;100618.38;5058908;28;20036;-68
2022/09/19 10:11:48;;;;;;;8.15;2.28;;;;;;;19.33;57.19;100608.00;5079335;28;20028;-72
2022/09/19 10:14:20;;;;;;;5.97;1.20;;;;;;;19.36;58.54;100610.50;5089446;28;20028;-71
2022/09/19 10:16:52;;;;;;;4.05;1.30;;;;;;;19.31;58.07;100606.34;5101214;28;20068;-70
2022/09/19 10:19:27;;;;;;;3.97;1.35;;;;;;;18.72;58.89;100607.06;5108796;28;20027;-71
2022/09/19 10:21:54;;;;;;;5.88;1.70;;;;;;;18.64;60.80;100608.44;5108905;28;20038;-71
2022/09/19 10:24:43;;;;;;;3.42;1.08;;;;;;;18.48;61.68;100600.38;5106824;28;20051;-71
2022/09/19 10:27:23;;;;;;;4.68;1.23;;;;;;;18.42;59.68;100592.59;5107504;28;20028;-71
2022/09/19 10:29:51;;;;;;;5.97;1.40;;;;;;;18.37;61.12;100606.28;5107194;28;20020;-70
2022/09/19 10:32:23;;;;;;;3.95;1.25;;;;;;;18.25;63.01;100606.09;5107652;28;20494;-71
2022/09/19 10:34:50;;;;;;;5.88;1.20;;;;;;;17.91;63.13;100590.91;5107888;28;20091;-70
2022/09/19 10:37:18;;;;;;;3.72;1.17;;;;;;;17.81;63.54;100589.63;5108095;28;20035;-71
2022/09/19 10:39:46;;;;;;;7.32;1.23;;;;;;;17.68;64.37;100595.75;5109247;28;20032;-70
2022/09/19 10:42:41;;;;;;;4.03;1.27;;;;;;;17.64;64.35;100596.88;5090590;28;20032;-71
2022/09/19 10:45:35;;;;;;;2.65;1.08;;;;;;;17.75;64.23;100600.75;5105679;28;20043;-71
2022/09/19 10:48:11;;;;;;;4.93;1.05;;;;;;;17.85;64.43;100593.91;5106679;28;20045;-70
2022/09/19 10:50:47;;;;;;;4.35;1.10;;;;;;;18.04;63.20;100594.66;5108826;28;20115;-71
2022/09/19 10:53:19;;;;;;;7.43;1.38;;;;;;;18.29;62.67;100589.69;5109455;28;20360;-71
2022/09/19 10:55:47;;;;;;;5.10;1.08;;;;;;;18.44;62.04;100595.19;5109222;28;20471;-71
2022/09/19 10:58:23;;;;;;;6.25;1.20;;;;;;;18.45;60.44;100591.56;5109151;28;20357;-71
2022/09/19 11:00:52;;;;;;;4.10;0.82;;;;;;;18.60;60.92;100598.81;5099488;28;20415;-70
2022/09/19 11:03:25;;;;;;;4.15;1.15;;;;;;;18.54;59.97;100591.03;5089238;28;20024;-70
2022/09/19 11:06:12;;;;;;;3.47;1.52;;;;;;;18.33;59.06;100593.94;5088781;28;20102;-70
2022/09/19 11:08:47;;;;;;;5.35;1.35;;;;;;;18.07;61.65;100605.25;5088749;28;20031;-71
2022/09/19 11:11:45;;;;;;;2.70;1.40;;;;;;;18.02;63.13;100609.19;5103121;28;20074;-69
2022/09/19 11:14:18;;;;;;;1.55;0.80;;;;;;;17.98;62.04;100604.88;5109230;28;20126;-71
2022/09/19 11:17:31;;;;;;;3.65;1.23;;;;;;;17.84;63.20;100604.78;5109472;28;20106;-71
2022/09/19 11:20:18;;;;;;;3.22;0.93;;;;;;;17.80;62.70;100604.06;5108982;28;20032;-70
2022/09/19 11:23:13;;;;;;;6.32;1.77;;;;;;;17.55;63.01;100608.97;5108857;28;20085;-71
2022/09/19 11:25:58;;;;;;;1.95;0.80;;;;;;;17.41;64.15;100606.09;5108625;28;20118;-70
2022/09/19 11:28:43;;;;;;;3.60;1.40;;;;;;;17.33;64.74;100599.38;5108911;28;20039;-71
2022/09/19 11:32:03;;;;;;;2.47;1.38;;;;;;;17.41;65.75;100595.34;5108655;28;20020;-70
2022/09/19 11:34:47;;;;;;;6.45;2.03;;;;;;;17.37;64.75;100601.81;5108833;28;20030;-70
2022/09/19 11:37:27;;;;;;;4.47;1.40;;;;;;;17.87;66.06;100597.41;5111042;28;20047;-71
2022/09/19 11:40:11;;;;;;;5.50;1.88;;;;;;;18.37;61.09;100598.22;5112451;28;20023;-71
2022/09/19 11:43:07;;;;;;;6.18;1.70;;;;;;;19.16;57.12;100596.44;5112086;28;20061;-70
2022/09/19 11:46:08;;;;;;;5.68;1.05;;;;;;;19.30;56.03;100599.22;5112705;28;20028;-70
2022/09/19 11:48:55;;;;;;;7.43;1.33;;;;;;;18.94;56.27;100596.81;5080792;28;20478;-70
2022/09/19 11:51:26;;;;;;;5.88;1.10;;;;;;;18.62;59.31;100594.19;5112174;28;20604;-70
2022/09/19 11:54:34;;;;;;;2.72;1.23;;;;;;;18.28;59.97;100587.97;5112245;28;20356;-70
2022/09/19 11:57:17;;;;;;;2.72;0.77;;;;;;;17.99;59.45;100579.72;5111434;28;20110;-69
2022/09/19 11:59:54;;;;;;;6.68;1.10;;;;;;;18.60;60.91;100579.94;5112393;28;20020;-70
2022/09/19 12:02:31;;;;;;;5.43;1.15;;;;;;;19.57;56.98;100560.66;5111858;28;20030;-69
2022/09/19 12:05:20;;;;;;;3.38;1.50;;;;;;;20.69;53.82;100565.19;5112119;28;20028;-70